createdAt,value
2023-02-05T00:03:10.250Z,3.10
2023-02-05T00:08:14.278Z,3.50
2023-02-05T00:13:18.091Z,4.40
2023-02-05T00:18:21.873Z,3.40
2023-02-05T00:23:25.684Z,4.00
2023-02-05T00:28:33.107Z,4.20
2023-02-05T00:33:37.048Z,4.40
2023-02-05T00:38:42.499Z,3.60
2023-02-05T00:43:46.931Z,3.40
2023-02-05T00:48:51.216Z,4.20
2023-02-05T00:53:55.740Z,3.10
2023-02-05T00:59:01.547Z,4.00
2023-02-05T01:04:05.633Z,3.70
2023-02-05T01:09:09.929Z,2.90
2023-02-05T01:14:14.006Z,4.30
2023-02-05T01:19:17.874Z,4.80
2023-02-05T01:24:22.457Z,4.30
2023-02-05T01:29:28.419Z,3.00
2023-02-05T01:34:33.330Z,4.00
2023-02-05T01:39:37.848Z,4.10
2023-02-05T01:44:41.669Z,4.00
2023-02-05T01:49:46.591Z,4.30
2023-02-05T01:54:53.719Z,2.70
2023-02-05T01:59:58.126Z,4.10
2023-02-05T02:05:07.997Z,3.90
2023-02-05T02:10:14.797Z,3.70
2023-02-05T02:15:23.590Z,4.70
2023-02-05T02:20:32.522Z,4.60
2023-02-05T02:25:42.375Z,5.50
2023-02-05T02:31:06.339Z,4.50
2023-02-05T02:36:16.247Z,4.40
2023-02-05T02:41:30.751Z,4.00
2023-02-05T02:46:41.372Z,4.30
2023-02-05T02:51:46.622Z,4.50
2023-02-05T02:56:52.248Z,4.50
2023-02-05T03:01:59.051Z,4.20
2023-02-05T03:07:10.298Z,4.10
2023-02-05T03:12:14.893Z,4.30
2023-02-05T03:17:21.995Z,4.30
2023-02-05T03:22:26.357Z,4.30
2023-02-05T03:27:30.279Z,4.90
2023-02-05T03:33:21.436Z,4.30
2023-02-05T03:38:54.597Z,3.60
2023-02-05T03:44:13.223Z,4.00
2023-02-05T03:49:52.766Z,5.10
2023-02-05T03:55:07.182Z,4.80
2023-02-05T04:00:13.387Z,3.70
2023-02-05T04:05:24.746Z,5.00
2023-02-05T04:10:30.950Z,4.60
2023-02-05T04:15:36.693Z,4.60
2023-02-05T04:20:43.382Z,4.60
2023-02-05T04:25:54.080Z,4.40
2023-02-05T04:31:01.356Z,4.20
2023-02-05T04:36:08.759Z,4.60
2023-02-05T04:41:13.567Z,5.00
2023-02-05T04:46:17.501Z,4.20
2023-02-05T04:51:21.353Z,4.80
2023-02-05T04:56:25.103Z,4.40
2023-02-05T05:01:29.053Z,5.00
2023-02-05T05:06:32.941Z,7.60
2023-02-05T05:11:36.858Z,6.20
2023-02-05T05:16:40.668Z,6.10
2023-02-05T05:21:44.346Z,8.90
2023-02-05T05:26:48.069Z,7.50
2023-02-05T05:31:55.281Z,4.60
2023-02-05T05:36:59.196Z,5.10
2023-02-05T05:42:21.706Z,4.40
2023-02-05T05:47:26.180Z,4.50
2023-02-05T05:52:32.352Z,9.60
2023-02-05T05:57:36.796Z,4.10
2023-02-05T06:02:41.985Z,11.10
2023-02-05T06:07:47.111Z,5.50
2023-02-05T06:12:56.210Z,4.90
2023-02-05T06:18:00.112Z,4.30
2023-02-05T06:23:04.010Z,5.30
2023-02-05T06:28:07.951Z,5.60
2023-02-05T06:33:13.273Z,5.70
2023-02-05T06:38:17.065Z,6.80
2023-02-05T06:43:20.851Z,9.60
2023-02-05T06:48:24.601Z,9.10
2023-02-05T06:53:28.316Z,8.60
2023-02-05T06:58:32.072Z,7.70
2023-02-05T07:03:35.945Z,8.00
2023-02-05T07:08:40.316Z,8.00
2023-02-05T07:13:44.041Z,8.90
2023-02-05T07:18:48.351Z,9.00
2023-02-05T07:23:52.115Z,8.90
2023-02-05T07:28:56.216Z,7.30
2023-02-05T07:34:00.126Z,10.90
2023-02-05T07:39:04.424Z,9.90
2023-02-05T07:44:08.047Z,9.90
2023-02-05T07:49:11.971Z,11.60
2023-02-05T07:54:16.105Z,8.80
2023-02-05T07:59:20.306Z,9.70
2023-02-05T08:04:24.773Z,8.70
2023-02-05T08:09:28.572Z,8.60
2023-02-05T08:14:32.525Z,7.90
2023-02-05T08:19:36.211Z,5.00
2023-02-05T08:24:39.952Z,5.00
2023-02-05T08:29:43.751Z,6.80
2023-02-05T08:34:47.347Z,7.30
2023-02-05T08:39:51.770Z,7.30
2023-02-05T08:44:59.338Z,7.90
2023-02-05T08:50:06.745Z,8.70
2023-02-05T08:55:11.393Z,7.50
2023-02-05T09:00:15.925Z,10.90
2023-02-05T09:05:20.308Z,6.30
2023-02-05T09:10:27.935Z,6.50
2023-02-05T09:15:33.085Z,5.60
2023-02-05T09:20:42.328Z,6.00
2023-02-05T09:25:46.311Z,5.40
2023-02-05T09:30:50.080Z,6.20
2023-02-05T09:35:55.213Z,3.60
2023-02-05T09:41:33.836Z,4.30
2023-02-05T09:46:58.654Z,4.50
2023-02-05T09:52:10.457Z,4.80
2023-02-05T09:57:21.062Z,5.40
2023-02-05T10:02:32.196Z,5.10
2023-02-05T10:08:13.331Z,5.20
2023-02-05T10:13:36.527Z,4.90
2023-02-05T10:19:14.953Z,5.30
2023-02-05T10:24:38.332Z,3.20
2023-02-05T10:30:14.615Z,3.00
2023-02-05T10:35:38.888Z,4.30
2023-02-05T10:40:46.994Z,4.80
2023-02-05T10:45:53.216Z,4.40
2023-02-05T10:51:06.477Z,2.40
2023-02-05T10:56:16.737Z,3.40
2023-02-05T11:01:41.859Z,2.10
2023-02-05T11:06:49.986Z,1.50
2023-02-05T11:12:02.826Z,2.20
2023-02-05T11:22:48.705Z,1.90
2023-02-05T11:28:00.332Z,1.70
2023-02-05T11:33:26.655Z,2.80
2023-02-05T11:38:42.499Z,1.70
2023-02-05T11:43:51.266Z,2.50
2023-02-05T11:48:58.876Z,2.00
2023-02-05T11:54:05.456Z,2.20
2023-02-05T11:59:22.467Z,2.20
2023-02-05T12:04:27.023Z,2.80
2023-02-05T12:09:32.155Z,2.70
2023-02-05T12:15:20.112Z,2.50
2023-02-05T12:20:34.831Z,1.90
2023-02-05T12:26:20.564Z,2.50
2023-02-05T12:32:00.772Z,1.80
2023-02-05T12:37:39.076Z,2.10
2023-02-05T12:42:47.262Z,2.30
2023-02-05T12:48:01.214Z,2.30
2023-02-05T12:53:55.543Z,2.60
2023-02-05T12:59:26.908Z,2.30
2023-02-05T13:04:46.265Z,3.30
2023-02-05T13:10:00.906Z,5.80
2023-02-05T13:15:24.211Z,4.70
2023-02-05T13:20:59.129Z,5.10
2023-02-05T13:26:09.620Z,4.40
2023-02-05T13:31:27.166Z,4.50
2023-02-05T13:36:57.559Z,4.60
2023-02-05T13:42:25.553Z,3.00
2023-02-05T13:47:40.992Z,3.30
2023-02-05T13:53:09.616Z,4.80
2023-02-05T13:58:21.272Z,3.60
2023-02-05T14:03:38.489Z,3.30
2023-02-05T14:08:42.748Z,2.90
2023-02-05T14:14:21.517Z,3.00
2023-02-05T14:19:45.987Z,2.90
2023-02-05T14:24:51.239Z,3.10
2023-02-05T14:29:55.627Z,3.40
2023-02-05T14:35:29.664Z,2.50
2023-02-05T14:40:39.232Z,3.40
2023-02-05T14:45:49.771Z,2.90
2023-02-05T14:51:10.338Z,3.40
2023-02-05T14:56:34.582Z,3.70
2023-02-05T15:02:00.572Z,5.00
2023-02-05T15:07:12.819Z,6.50
2023-02-05T15:13:09.093Z,9.80
2023-02-05T15:18:18.773Z,8.50
2023-02-05T15:23:28.867Z,6.50
2023-02-05T15:28:37.923Z,4.20
2023-02-05T15:34:19.548Z,3.50
2023-02-05T15:40:08.910Z,3.40
2023-02-05T15:45:47.077Z,2.80
2023-02-05T15:51:01.592Z,3.50
2023-02-05T15:56:20.493Z,3.40
2023-02-05T16:01:48.457Z,3.50
2023-02-05T16:06:53.866Z,3.40
2023-02-05T16:12:12.949Z,3.90
2023-02-05T16:17:45.594Z,3.30
2023-02-05T16:23:07.480Z,3.30
2023-02-05T16:28:40.651Z,3.50
2023-02-05T16:34:01.078Z,3.50
2023-02-05T16:39:11.627Z,3.70
2023-02-05T16:44:32.266Z,3.60
2023-02-05T16:49:38.951Z,14.10
2023-02-05T16:54:47.741Z,9.50
2023-02-05T17:00:03.527Z,11.50
2023-02-05T17:05:27.966Z,29.40
2023-02-05T17:10:56.956Z,23.90
2023-02-05T17:16:28.538Z,23.60
2023-02-05T17:21:40.857Z,21.60
2023-02-05T17:26:46.768Z,25.30
2023-02-05T17:32:06.389Z,10.70
2023-02-05T17:37:13.177Z,15.90
2023-02-05T17:42:23.917Z,35.30
2023-02-05T17:47:30.458Z,26.00
2023-02-05T17:52:39.796Z,16.90
2023-02-05T17:57:48.556Z,6.40
2023-02-05T18:02:56.360Z,21.40
2023-02-05T18:08:04.057Z,20.60
2023-02-05T18:13:11.234Z,41.70
2023-02-05T18:18:20.656Z,34.20
2023-02-05T18:23:30.274Z,51.00
2023-02-05T18:28:36.430Z,40.70
2023-02-05T18:33:44.820Z,37.60
2023-02-05T18:38:52.374Z,43.70
2023-02-05T18:43:58.845Z,52.00
2023-02-05T18:49:05.207Z,47.00
2023-02-05T18:54:10.428Z,50.70
2023-02-05T18:59:20.004Z,45.10
2023-02-05T19:04:29.085Z,39.10
2023-02-05T19:09:34.723Z,41.20
2023-02-05T19:14:42.544Z,35.30
2023-02-05T19:20:00.700Z,32.60
2023-02-05T19:30:21.615Z,42.70
2023-02-05T19:35:28.567Z,45.60
2023-02-05T19:40:37.736Z,63.20
2023-02-05T19:45:43.394Z,47.20
2023-02-05T19:50:48.466Z,51.70
2023-02-05T19:55:55.040Z,35.80
2023-02-05T20:01:02.832Z,39.70
2023-02-05T20:06:12.067Z,43.30
2023-02-05T20:11:18.994Z,40.30
2023-02-05T20:16:26.783Z,40.10
2023-02-05T20:21:32.184Z,33.30
2023-02-05T20:26:38.182Z,35.20
2023-02-05T20:31:54.398Z,47.70
2023-02-05T20:37:02.432Z,38.60
2023-02-05T20:42:10.924Z,38.50
2023-02-05T20:47:22.729Z,38.60
2023-02-05T20:52:28.901Z,36.10
2023-02-05T20:57:33.946Z,37.50
2023-02-05T21:02:39.868Z,32.00
2023-02-05T21:07:45.425Z,33.60
2023-02-05T21:12:51.621Z,34.10
2023-02-05T21:17:55.931Z,37.50
2023-02-05T21:23:01.725Z,32.70
2023-02-05T21:28:07.753Z,25.90
2023-02-05T21:33:13.448Z,26.90
2023-02-05T21:38:18.525Z,26.60
2023-02-05T21:43:23.960Z,28.10
2023-02-05T21:48:32.507Z,33.10
2023-02-05T21:53:40.034Z,31.60
2023-02-05T21:58:47.806Z,46.60
2023-02-05T22:03:57.337Z,50.20
2023-02-05T22:09:04.385Z,34.00
2023-02-05T22:14:09.598Z,34.70
2023-02-05T22:19:13.606Z,34.80
2023-02-05T22:24:18.967Z,34.90
2023-02-05T22:29:23.587Z,66.50
2023-02-05T22:34:28.459Z,47.10
2023-02-05T22:39:34.434Z,44.30
2023-02-05T22:44:38.932Z,34.40
2023-02-05T22:49:43.517Z,29.90
2023-02-05T22:54:47.446Z,31.50
2023-02-05T22:59:51.147Z,32.70
2023-02-05T23:04:54.902Z,40.60
2023-02-05T23:09:58.604Z,60.20
2023-02-05T23:15:02.402Z,57.60
2023-02-05T23:20:10.249Z,45.20
2023-02-05T23:25:17.127Z,73.90
2023-02-05T23:30:21.540Z,46.00
2023-02-05T23:35:25.788Z,46.80
2023-02-05T23:40:29.567Z,44.90
2023-02-05T23:45:37.183Z,44.50
2023-02-05T23:50:44.274Z,39.40
2023-02-05T23:55:50.161Z,44.70
